sensor_id;sensor_type;location;lat;lon;timestamp;pressure;altitude;pressure_sealevel;temperature;humidity
22000;BME280;11164;48.818;2.322;2023-02-28T00:00:05;101672.91;;;3.18;34.69
22000;BME280;11164;48.818;2.322;2023-02-28T00:02:38;101660.44;;;3.07;34.42
22000;BME280;11164;48.818;2.322;2023-02-28T00:05:04;101673.63;;;3.20;34.36
22000;BME280;11164;48.818;2.322;2023-02-28T00:07:30;101654.53;;;3.04;34.05
22000;BME280;11164;48.818;2.322;2023-02-28T00:10:03;101660.09;;;3.12;34.64
22000;BME280;11164;48.818;2.322;2023-02-28T00:12:29;101666.41;;;2.88;34.82
22000;BME280;11164;48.818;2.322;2023-02-28T00:14:55;101670.97;;;3.20;35.13
22000;BME280;11164;48.818;2.322;2023-02-28T00:17:20;101671.72;;;3.11;34.64
22000;BME280;11164;48.818;2.322;2023-02-28T00:19:50;101657.66;;;2.97;34.96
22000;BME280;11164;48.818;2.322;2023-02-28T00:22:17;101667.34;;;3.21;34.98
22000;BME280;11164;48.818;2.322;2023-02-28T00:24:43;101666.84;;;3.05;34.70
22000;BME280;11164;48.818;2.322;2023-02-28T00:27:09;101658.41;;;3.00;35.38
22000;BME280;11164;48.818;2.322;2023-02-28T00:29:34;101669.31;;;2.96;35.08
22000;BME280;11164;48.818;2.322;2023-02-28T00:32:00;101679.94;;;3.19;34.73
22000;BME280;11164;48.818;2.322;2023-02-28T00:34:25;101676.09;;;3.12;34.90
22000;BME280;11164;48.818;2.322;2023-02-28T00:36:51;101683.84;;;3.04;35.08
22000;BME280;11164;48.818;2.322;2023-02-28T00:39:16;101681.53;;;2.99;34.55
22000;BME280;11164;48.818;2.322;2023-02-28T00:41:42;101686.47;;;3.15;34.81
22000;BME280;11164;48.818;2.322;2023-02-28T00:44:07;101684.56;;;3.06;35.60
22000;BME280;11164;48.818;2.322;2023-02-28T00:46:32;101684.16;;;3.22;34.36
22000;BME280;11164;48.818;2.322;2023-02-28T00:48:58;101679.44;;;3.25;34.26
22000;BME280;11164;48.818;2.322;2023-02-28T00:51:23;101683.53;;;3.41;34.25
22000;BME280;11164;48.818;2.322;2023-02-28T00:53:49;101688.16;;;3.05;34.87
22000;BME280;11164;48.818;2.322;2023-02-28T00:56:14;101685.75;;;3.13;34.40
22000;BME280;11164;48.818;2.322;2023-02-28T00:58:40;101691.19;;;3.23;34.57
22000;BME280;11164;48.818;2.322;2023-02-28T01:01:05;101696.94;;;2.84;35.15
22000;BME280;11164;48.818;2.322;2023-02-28T01:03:31;101698.84;;;2.93;35.33
22000;BME280;11164;48.818;2.322;2023-02-28T01:05:57;101697.63;;;2.97;35.25
22000;BME280;11164;48.818;2.322;2023-02-28T01:08:23;101695.94;;;2.96;34.94
22000;BME280;11164;48.818;2.322;2023-02-28T01:10:48;101701.63;;;2.92;34.87
22000;BME280;11164;48.818;2.322;2023-02-28T01:13:14;101707.56;;;3.07;34.24
22000;BME280;11164;48.818;2.322;2023-02-28T01:15:42;101700.19;;;2.99;34.98
22000;BME280;11164;48.818;2.322;2023-02-28T01:18:08;101705.72;;;3.19;34.29
22000;BME280;11164;48.818;2.322;2023-02-28T01:20:38;101714.72;;;3.18;34.28
22000;BME280;11164;48.818;2.322;2023-02-28T01:23:03;101703.81;;;2.75;34.92
22000;BME280;11164;48.818;2.322;2023-02-28T01:25:29;101708.06;;;2.89;34.97
22000;BME280;11164;48.818;2.322;2023-02-28T01:27:54;101707.69;;;3.05;34.48
22000;BME280;11164;48.818;2.322;2023-02-28T01:30:20;101710.72;;;2.67;35.08
22000;BME280;11164;48.818;2.322;2023-02-28T01:32:45;101706.59;;;2.74;35.59
22000;BME280;11164;48.818;2.322;2023-02-28T01:35:11;101711.19;;;2.83;35.25
22000;BME280;11164;48.818;2.322;2023-02-28T01:37:36;101682.97;;;2.92;34.49
22000;BME280;11164;48.818;2.322;2023-02-28T01:40:02;101696.66;;;2.76;34.49
22000;BME280;11164;48.818;2.322;2023-02-28T01:42:27;101681.66;;;2.64;35.26
22000;BME280;11164;48.818;2.322;2023-02-28T01:47:52;101704.88;;;2.73;35.34
22000;BME280;11164;48.818;2.322;2023-02-28T01:50:22;101687.25;;;2.72;35.35
22000;BME280;11164;48.818;2.322;2023-02-28T01:52:48;101696.44;;;2.79;34.51
22000;BME280;11164;48.818;2.322;2023-02-28T01:55:16;101698.34;;;2.77;34.67
22000;BME280;11164;48.818;2.322;2023-02-28T01:57:51;101693.03;;;2.66;35.36
22000;BME280;11164;48.818;2.322;2023-02-28T02:00:20;101698.31;;;2.43;35.86
22000;BME280;11164;48.818;2.322;2023-02-28T02:02:49;101695.53;;;2.56;35.81
22000;BME280;11164;48.818;2.322;2023-02-28T02:05:27;101696.41;;;2.68;34.94
22000;BME280;11164;48.818;2.322;2023-02-28T02:07:58;101693.53;;;2.71;35.32
22000;BME280;11164;48.818;2.322;2023-02-28T02:10:33;101694.72;;;2.67;35.67
22000;BME280;11164;48.818;2.322;2023-02-28T02:13:08;101686.50;;;2.58;35.88
22000;BME280;11164;48.818;2.322;2023-02-28T02:15:47;101692.16;;;2.54;35.93
22000;BME280;11164;48.818;2.322;2023-02-28T02:21:01;101693.50;;;2.48;36.56
22000;BME280;11164;48.818;2.322;2023-02-28T02:40:20;101677.63;;;2.35;36.48
22000;BME280;11164;48.818;2.322;2023-02-28T02:43:04;101667.47;;;2.52;34.93
22000;BME280;11164;48.818;2.322;2023-02-28T02:45:37;101674.25;;;2.78;34.53
22000;BME280;11164;48.818;2.322;2023-02-28T02:48:07;101668.56;;;2.60;35.01
22000;BME280;11164;48.818;2.322;2023-02-28T02:50:40;101676.69;;;2.48;35.18
22000;BME280;11164;48.818;2.322;2023-02-28T02:53:09;101673.91;;;2.49;35.21
22000;BME280;11164;48.818;2.322;2023-02-28T02:55:40;101657.63;;;2.30;35.06
22000;BME280;11164;48.818;2.322;2023-02-28T02:58:11;101675.56;;;2.50;35.33
22000;BME280;11164;48.818;2.322;2023-02-28T03:00:43;101672.69;;;2.65;35.07
22000;BME280;11164;48.818;2.322;2023-02-28T03:03:12;101665.78;;;2.39;34.95
22000;BME280;11164;48.818;2.322;2023-02-28T03:05:47;101664.22;;;2.48;34.99
22000;BME280;11164;48.818;2.322;2023-02-28T03:08:13;101664.97;;;2.62;34.64
22000;BME280;11164;48.818;2.322;2023-02-28T03:10:44;101654.75;;;2.21;35.27
22000;BME280;11164;48.818;2.322;2023-02-28T03:13:12;101667.09;;;2.45;35.34
22000;BME280;11164;48.818;2.322;2023-02-28T03:15:57;101672.69;;;2.53;35.06
22000;BME280;11164;48.818;2.322;2023-02-28T03:21:38;101676.06;;;2.55;35.69
22000;BME280;11164;48.818;2.322;2023-02-28T03:24:09;101675.13;;;2.56;34.94
22000;BME280;11164;48.818;2.322;2023-02-28T03:26:39;101679.19;;;2.38;35.53
22000;BME280;11164;48.818;2.322;2023-02-28T03:32:00;101671.47;;;2.46;35.40
22000;BME280;11164;48.818;2.322;2023-02-28T03:34:37;101674.09;;;2.35;35.46
22000;BME280;11164;48.818;2.322;2023-02-28T03:37:13;101673.53;;;2.07;36.34
22000;BME280;11164;48.818;2.322;2023-02-28T03:39:55;101672.72;;;2.07;35.96
22000;BME280;11164;48.818;2.322;2023-02-28T03:42:25;101684.13;;;2.20;34.98
22000;BME280;11164;48.818;2.322;2023-02-28T03:45:23;101676.16;;;2.31;35.81
22000;BME280;11164;48.818;2.322;2023-02-28T03:47:51;101686.66;;;2.21;35.25
22000;BME280;11164;48.818;2.322;2023-02-28T03:50:24;101676.31;;;2.41;34.89
22000;BME280;11164;48.818;2.322;2023-02-28T03:52:55;101677.53;;;2.48;34.67
22000;BME280;11164;48.818;2.322;2023-02-28T03:55:28;101679.44;;;2.35;35.14
22000;BME280;11164;48.818;2.322;2023-02-28T03:58:03;101674.25;;;2.45;34.61
22000;BME280;11164;48.818;2.322;2023-02-28T04:00:34;101676.91;;;2.45;34.46
22000;BME280;11164;48.818;2.322;2023-02-28T04:03:01;101677.88;;;2.44;34.54
22000;BME280;11164;48.818;2.322;2023-02-28T04:05:26;101684.91;;;2.56;34.08
22000;BME280;11164;48.818;2.322;2023-02-28T04:07:53;101687.94;;;2.63;33.88
22000;BME280;11164;48.818;2.322;2023-02-28T04:10:19;101674.50;;;2.64;34.28
22000;BME280;11164;48.818;2.322;2023-02-28T04:12:45;101684.16;;;2.43;34.93
22000;BME280;11164;48.818;2.322;2023-02-28T04:15:10;101683.34;;;2.07;35.28
22000;BME280;11164;48.818;2.322;2023-02-28T04:17:36;101693.09;;;2.30;34.69
22000;BME280;11164;48.818;2.322;2023-02-28T04:20:03;101671.28;;;2.14;35.23
22000;BME280;11164;48.818;2.322;2023-02-28T04:22:35;101688.22;;;2.13;35.09
22000;BME280;11164;48.818;2.322;2023-02-28T04:25:00;101683.50;;;2.16;34.88
22000;BME280;11164;48.818;2.322;2023-02-28T04:27:25;101695.63;;;2.32;34.27
22000;BME280;11164;48.818;2.322;2023-02-28T04:29:50;101695.28;;;2.25;34.37
22000;BME280;11164;48.818;2.322;2023-02-28T04:32:16;101689.50;;;1.96;35.04
22000;BME280;11164;48.818;2.322;2023-02-28T04:34:41;101685.56;;;2.13;34.85
22000;BME280;11164;48.818;2.322;2023-02-28T04:37:06;101705.03;;;2.25;34.81
22000;BME280;11164;48.818;2.322;2023-02-28T04:39:35;101699.34;;;2.18;34.72
22000;BME280;11164;48.818;2.322;2023-02-28T04:42:01;101711.69;;;2.19;34.98
22000;BME280;11164;48.818;2.322;2023-02-28T04:44:26;101702.31;;;2.02;35.30
22000;BME280;11164;48.818;2.322;2023-02-28T04:46:52;101706.38;;;2.19;34.36
22000;BME280;11164;48.818;2.322;2023-02-28T04:49:17;101705.47;;;2.07;35.90
22000;BME280;11164;48.818;2.322;2023-02-28T04:51:42;101709.50;;;1.89;34.93
22000;BME280;11164;48.818;2.322;2023-02-28T04:54:08;101718.31;;;2.13;35.09
22000;BME280;11164;48.818;2.322;2023-02-28T04:56:34;101719.78;;;2.17;34.71
22000;BME280;11164;48.818;2.322;2023-02-28T04:58:59;101713.44;;;1.96;35.25
22000;BME280;11164;48.818;2.322;2023-02-28T05:01:32;101715.88;;;2.10;34.59
22000;BME280;11164;48.818;2.322;2023-02-28T05:03:59;101723.94;;;2.21;34.55
22000;BME280;11164;48.818;2.322;2023-02-28T05:06:27;101706.78;;;2.01;35.09
22000;BME280;11164;48.818;2.322;2023-02-28T05:08:53;101724.47;;;2.02;34.88
22000;BME280;11164;48.818;2.322;2023-02-28T05:11:21;101696.53;;;1.60;35.49
22000;BME280;11164;48.818;2.322;2023-02-28T05:13:48;101707.88;;;1.75;35.14
22000;BME280;11164;48.818;2.322;2023-02-28T05:16:14;101719.88;;;2.05;34.96
22000;BME280;11164;48.818;2.322;2023-02-28T05:18:40;101725.47;;;2.13;34.50
22000;BME280;11164;48.818;2.322;2023-02-28T05:21:05;101722.63;;;2.03;34.94
22000;BME280;11164;48.818;2.322;2023-02-28T05:23:31;101717.09;;;2.06;35.02
22000;BME280;11164;48.818;2.322;2023-02-28T05:25:57;101730.69;;;2.26;34.49
22000;BME280;11164;48.818;2.322;2023-02-28T05:28:22;101740.06;;;2.07;34.48
22000;BME280;11164;48.818;2.322;2023-02-28T05:30:48;101736.13;;;2.24;34.66
22000;BME280;11164;48.818;2.322;2023-02-28T05:33:13;101728.69;;;2.05;34.95
22000;BME280;11164;48.818;2.322;2023-02-28T05:35:40;101748.31;;;2.15;34.82
22000;BME280;11164;48.818;2.322;2023-02-28T05:38:06;101741.28;;;2.14;34.52
22000;BME280;11164;48.818;2.322;2023-02-28T05:40:32;101740.28;;;1.80;35.52
22000;BME280;11164;48.818;2.322;2023-02-28T05:42:57;101743.50;;;1.72;35.67
22000;BME280;11164;48.818;2.322;2023-02-28T05:45:22;101742.69;;;1.83;35.08
22000;BME280;11164;48.818;2.322;2023-02-28T05:47:48;101744.03;;;2.01;35.14
22000;BME280;11164;48.818;2.322;2023-02-28T05:50:13;101746.06;;;2.22;34.97
22000;BME280;11164;48.818;2.322;2023-02-28T05:52:38;101739.44;;;2.03;34.75
22000;BME280;11164;48.818;2.322;2023-02-28T05:55:04;101743.81;;;1.92;35.52
22000;BME280;11164;48.818;2.322;2023-02-28T05:57:30;101741.69;;;1.97;35.11
22000;BME280;11164;48.818;2.322;2023-02-28T05:59:55;101744.91;;;1.89;35.19
22000;BME280;11164;48.818;2.322;2023-02-28T06:02:20;101724.84;;;1.85;35.33
22000;BME280;11164;48.818;2.322;2023-02-28T06:04:46;101739.69;;;1.63;35.88
22000;BME280;11164;48.818;2.322;2023-02-28T06:07:11;101740.91;;;1.46;36.32
22000;BME280;11164;48.818;2.322;2023-02-28T06:09:37;101735.28;;;1.51;36.17
22000;BME280;11164;48.818;2.322;2023-02-28T06:12:05;101749.91;;;1.70;35.90
22000;BME280;11164;48.818;2.322;2023-02-28T06:14:31;101734.00;;;1.81;35.66
22000;BME280;11164;48.818;2.322;2023-02-28T06:16:58;101745.19;;;1.73;35.74
22000;BME280;11164;48.818;2.322;2023-02-28T06:19:24;101754.09;;;1.85;35.83
22000;BME280;11164;48.818;2.322;2023-02-28T06:21:51;101749.28;;;1.66;36.57
22000;BME280;11164;48.818;2.322;2023-02-28T06:24:21;101742.94;;;1.80;35.67
22000;BME280;11164;48.818;2.322;2023-02-28T06:26:46;101748.91;;;1.95;35.87
22000;BME280;11164;48.818;2.322;2023-02-28T06:29:12;101748.00;;;1.96;36.02
22000;BME280;11164;48.818;2.322;2023-02-28T06:31:42;101734.50;;;1.86;35.97
22000;BME280;11164;48.818;2.322;2023-02-28T06:34:09;101751.44;;;2.09;35.33
22000;BME280;11164;48.818;2.322;2023-02-28T06:36:37;101740.16;;;1.57;36.57
22000;BME280;11164;48.818;2.322;2023-02-28T06:39:03;101754.50;;;1.55;36.49
22000;BME280;11164;48.818;2.322;2023-02-28T06:41:28;101761.38;;;1.70;36.01
22000;BME280;11164;48.818;2.322;2023-02-28T06:43:54;101757.28;;;1.77;36.30
22000;BME280;11164;48.818;2.322;2023-02-28T06:46:20;101756.09;;;1.81;36.81
22000;BME280;11164;48.818;2.322;2023-02-28T06:48:45;101726.78;;;1.46;36.46
22000;BME280;11164;48.818;2.322;2023-02-28T06:51:16;101752.38;;;1.60;37.07
22000;BME280;11164;48.818;2.322;2023-02-28T06:53:42;101755.88;;;1.60;36.72
22000;BME280;11164;48.818;2.322;2023-02-28T06:56:11;101750.97;;;1.91;36.37
22000;BME280;11164;48.818;2.322;2023-02-28T06:58:37;101750.22;;;1.89;36.28
22000;BME280;11164;48.818;2.322;2023-02-28T07:01:03;101753.59;;;1.67;37.21
22000;BME280;11164;48.818;2.322;2023-02-28T07:03:29;101760.25;;;1.85;36.95
22000;BME280;11164;48.818;2.322;2023-02-28T07:05:54;101756.34;;;1.78;37.06
22000;BME280;11164;48.818;2.322;2023-02-28T07:08:22;101754.34;;;1.69;36.93
22000;BME280;11164;48.818;2.322;2023-02-28T07:10:51;101754.75;;;1.76;37.67
22000;BME280;11164;48.818;2.322;2023-02-28T07:13:17;101766.69;;;1.94;37.00
22000;BME280;11164;48.818;2.322;2023-02-28T07:15:42;101778.16;;;1.71;37.74
22000;BME280;11164;48.818;2.322;2023-02-28T07:18:07;101749.03;;;1.32;37.73
22000;BME280;11164;48.818;2.322;2023-02-28T07:20:33;101769.91;;;1.62;37.47
22000;BME280;11164;48.818;2.322;2023-02-28T07:22:58;101757.47;;;1.63;37.42
22000;BME280;11164;48.818;2.322;2023-02-28T07:25:25;101771.72;;;1.86;37.54
22000;BME280;11164;48.818;2.322;2023-02-28T07:27:53;101750.81;;;2.06;37.05
22000;BME280;11164;48.818;2.322;2023-02-28T07:30:19;101766.59;;;1.72;37.18
22000;BME280;11164;48.818;2.322;2023-02-28T07:32:45;101764.25;;;1.91;38.02
22000;BME280;11164;48.818;2.322;2023-02-28T07:35:10;101762.47;;;2.16;37.02
22000;BME280;11164;48.818;2.322;2023-02-28T07:37:36;101775.34;;;2.33;36.89
22000;BME280;11164;48.818;2.322;2023-02-28T07:40:06;101777.47;;;2.52;37.10
22000;BME280;11164;48.818;2.322;2023-02-28T07:42:34;101774.41;;;2.46;36.46
22000;BME280;11164;48.818;2.322;2023-02-28T07:44:59;101774.28;;;2.36;37.37
22000;BME280;11164;48.818;2.322;2023-02-28T07:47:25;101769.91;;;2.35;36.96
22000;BME280;11164;48.818;2.322;2023-02-28T07:49:50;101781.56;;;2.45;36.86
22000;BME280;11164;48.818;2.322;2023-02-28T07:52:16;101779.03;;;2.44;36.98
22000;BME280;11164;48.818;2.322;2023-02-28T07:54:41;101786.81;;;2.22;37.35
22000;BME280;11164;48.818;2.322;2023-02-28T07:57:07;101789.59;;;2.56;37.02
22000;BME280;11164;48.818;2.322;2023-02-28T07:59:33;101782.97;;;2.73;36.60
22000;BME280;11164;48.818;2.322;2023-02-28T08:01:58;101771.09;;;2.66;37.31
22000;BME280;11164;48.818;2.322;2023-02-28T08:04:24;101790.41;;;3.04;36.53
22000;BME280;11164;48.818;2.322;2023-02-28T08:06:49;101791.72;;;2.87;36.73
22000;BME280;11164;48.818;2.322;2023-02-28T08:09:17;101793.19;;;3.02;36.17
22000;BME280;11164;48.818;2.322;2023-02-28T08:11:42;101792.09;;;2.93;36.47
22000;BME280;11164;48.818;2.322;2023-02-28T08:14:08;101787.22;;;2.87;37.15
22000;BME280;11164;48.818;2.322;2023-02-28T08:16:33;101789.53;;;2.34;38.23
22000;BME280;11164;48.818;2.322;2023-02-28T08:18:58;101784.41;;;1.82;38.83
22000;BME280;11164;48.818;2.322;2023-02-28T08:21:24;101792.56;;;1.55;39.29
22000;BME280;11164;48.818;2.322;2023-02-28T08:23:50;101787.28;;;1.79;39.00
22000;BME280;11164;48.818;2.322;2023-02-28T08:26:17;101795.34;;;2.39;37.90
22000;BME280;11164;48.818;2.322;2023-02-28T08:28:43;101798.81;;;2.28;37.69
22000;BME280;11164;48.818;2.322;2023-02-28T08:31:11;101796.50;;;1.87;38.73
22000;BME280;11164;48.818;2.322;2023-02-28T08:33:38;101790.50;;;1.72;39.27
22000;BME280;11164;48.818;2.322;2023-02-28T08:36:05;101797.41;;;2.35;37.70
22000;BME280;11164;48.818;2.322;2023-02-28T08:38:30;101793.44;;;2.52;37.36
22000;BME280;11164;48.818;2.322;2023-02-28T08:41:01;101802.44;;;2.63;38.02
22000;BME280;11164;48.818;2.322;2023-02-28T08:43:28;101812.09;;;3.10;37.15
22000;BME280;11164;48.818;2.322;2023-02-28T08:45:54;101802.91;;;3.03;37.12
22000;BME280;11164;48.818;2.322;2023-02-28T08:48:22;101807.16;;;2.59;38.07
22000;BME280;11164;48.818;2.322;2023-02-28T08:51:06;101803.66;;;2.58;39.04
22000;BME280;11164;48.818;2.322;2023-02-28T08:53:32;101811.75;;;2.68;37.45
22000;BME280;11164;48.818;2.322;2023-02-28T08:56:03;101804.97;;;3.33;37.02
22000;BME280;11164;48.818;2.322;2023-02-28T08:58:29;101803.75;;;3.49;36.76
22000;BME280;11164;48.818;2.322;2023-02-28T09:00:55;101808.25;;;3.48;36.27
22000;BME280;11164;48.818;2.322;2023-02-28T09:03:20;101808.84;;;3.52;36.89
22000;BME280;11164;48.818;2.322;2023-02-28T09:05:56;101807.88;;;3.42;36.89
22000;BME280;11164;48.818;2.322;2023-02-28T09:08:24;101808.25;;;3.48;36.86
22000;BME280;11164;48.818;2.322;2023-02-28T09:10:50;101800.44;;;3.57;36.61
22000;BME280;11164;48.818;2.322;2023-02-28T09:13:16;101807.84;;;2.96;37.40
22000;BME280;11164;48.818;2.322;2023-02-28T09:15:41;101809.31;;;3.12;37.12
22000;BME280;11164;48.818;2.322;2023-02-28T09:18:07;101804.47;;;3.51;36.56
22000;BME280;11164;48.818;2.322;2023-02-28T09:20:32;101799.38;;;3.59;36.59
22000;BME280;11164;48.818;2.322;2023-02-28T09:22:57;101800.41;;;3.90;36.13
22000;BME280;11164;48.818;2.322;2023-02-28T09:25:23;101808.16;;;4.26;35.65
22000;BME280;11164;48.818;2.322;2023-02-28T09:27:48;101795.41;;;4.29;35.84
22000;BME280;11164;48.818;2.322;2023-02-28T09:30:14;101816.44;;;4.23;36.06
22000;BME280;11164;48.818;2.322;2023-02-28T09:32:40;101804.50;;;3.95;36.44
22000;BME280;11164;48.818;2.322;2023-02-28T09:35:05;101813.69;;;4.02;36.25
22000;BME280;11164;48.818;2.322;2023-02-28T09:37:31;101809.50;;;3.88;36.77
22000;BME280;11164;48.818;2.322;2023-02-28T09:39:57;101793.00;;;3.83;36.22
22000;BME280;11164;48.818;2.322;2023-02-28T09:42:31;101803.16;;;4.44;35.33
22000;BME280;11164;48.818;2.322;2023-02-28T09:44:58;101809.81;;;4.38;35.55
22000;BME280;11164;48.818;2.322;2023-02-28T09:47:36;101803.03;;;4.45;35.17
22000;BME280;11164;48.818;2.322;2023-02-28T09:52:59;101769.16;;;4.35;35.65
22000;BME280;11164;48.818;2.322;2023-02-28T09:55:33;101802.63;;;4.71;35.62
22000;BME280;11164;48.818;2.322;2023-02-28T09:58:02;101796.88;;;4.87;35.09
22000;BME280;11164;48.818;2.322;2023-02-28T10:00:33;101794.50;;;5.24;35.01
22000;BME280;11164;48.818;2.322;2023-02-28T10:08:39;101789.34;;;5.42;33.68
22000;BME280;11164;48.818;2.322;2023-02-28T10:11:10;101775.84;;;5.44;34.62
22000;BME280;11164;48.818;2.322;2023-02-28T10:13:54;101786.38;;;5.96;32.92
22000;BME280;11164;48.818;2.322;2023-02-28T10:16:39;101761.75;;;6.12;32.24
22000;BME280;11164;48.818;2.322;2023-02-28T10:19:17;101781.47;;;5.91;34.10
22000;BME280;11164;48.818;2.322;2023-02-28T10:22:02;101779.78;;;6.10;32.99
22000;BME280;11164;48.818;2.322;2023-02-28T10:24:33;101780.47;;;5.32;34.50
22000;BME280;11164;48.818;2.322;2023-02-28T10:27:06;101765.44;;;5.51;34.60
22000;BME280;11164;48.818;2.322;2023-02-28T10:29:37;101762.53;;;5.23;35.01
22000;BME280;11164;48.818;2.322;2023-02-28T10:32:05;101765.00;;;5.46;34.57
22000;BME280;11164;48.818;2.322;2023-02-28T10:34:31;101769.91;;;5.00;35.06
22000;BME280;11164;48.818;2.322;2023-02-28T10:36:58;101754.31;;;5.36;34.03
22000;BME280;11164;48.818;2.322;2023-02-28T10:39:45;101734.81;;;6.23;32.72
22000;BME280;11164;48.818;2.322;2023-02-28T10:42:37;101754.13;;;6.17;31.63
22000;BME280;11164;48.818;2.322;2023-02-28T10:45:10;101747.78;;;6.08;33.04
22000;BME280;11164;48.818;2.322;2023-02-28T10:47:49;101748.00;;;5.47;32.33
22000;BME280;11164;48.818;2.322;2023-02-28T10:50:45;101733.41;;;5.20;31.61
22000;BME280;11164;48.818;2.322;2023-02-28T10:53:30;101733.72;;;5.96;30.72
22000;BME280;11164;48.818;2.322;2023-02-28T10:56:23;101731.53;;;5.61;29.83
22000;BME280;11164;48.818;2.322;2023-02-28T10:58:57;101740.47;;;6.10;33.06
22000;BME280;11164;48.818;2.322;2023-02-28T11:03:57;101725.09;;;6.51;32.09
22000;BME280;11164;48.818;2.322;2023-02-28T11:06:29;101737.53;;;6.04;32.41
22000;BME280;11164;48.818;2.322;2023-02-28T11:08:59;101739.19;;;6.14;32.19
22000;BME280;11164;48.818;2.322;2023-02-28T11:11:26;101731.31;;;5.74;32.36
22000;BME280;11164;48.818;2.322;2023-02-28T11:13:56;101724.09;;;5.65;31.63
22000;BME280;11164;48.818;2.322;2023-02-28T11:16:32;101707.59;;;5.50;29.62
22000;BME280;11164;48.818;2.322;2023-02-28T11:18:58;101724.88;;;5.36;32.25
22000;BME280;11164;48.818;2.322;2023-02-28T11:21:27;101729.00;;;5.59;29.35
22000;BME280;11164;48.818;2.322;2023-02-28T11:24:02;101721.31;;;5.95;28.90
22000;BME280;11164;48.818;2.322;2023-02-28T11:26:44;101724.28;;;6.31;28.02
22000;BME280;11164;48.818;2.322;2023-02-28T11:29:27;101722.25;;;6.53;27.33
22000;BME280;11164;48.818;2.322;2023-02-28T11:32:20;101721.88;;;6.09;27.99
22000;BME280;11164;48.818;2.322;2023-02-28T11:34:59;101708.47;;;5.79;31.71
22000;BME280;11164;48.818;2.322;2023-02-28T11:37:27;101717.31;;;5.41;31.42
22000;BME280;11164;48.818;2.322;2023-02-28T11:39:53;101706.94;;;5.96;31.49
22000;BME280;11164;48.818;2.322;2023-02-28T11:48:09;101700.22;;;5.22;31.10
22000;BME280;11164;48.818;2.322;2023-02-28T11:53:50;101696.03;;;4.99;28.52
22000;BME280;11164;48.818;2.322;2023-02-28T11:56:52;101692.13;;;5.53;27.48
22000;BME280;11164;48.818;2.322;2023-02-28T12:02:25;101698.22;;;6.81;27.08
22000;BME280;11164;48.818;2.322;2023-02-28T12:10:44;101672.94;;;6.46;26.81
22000;BME280;11164;48.818;2.322;2023-02-28T12:13:21;101657.81;;;6.54;27.47
22000;BME280;11164;48.818;2.322;2023-02-28T12:26:41;101658.88;;;5.85;30.26
22000;BME280;11164;48.818;2.322;2023-02-28T12:29:19;101654.50;;;5.84;30.16
22000;BME280;11164;48.818;2.322;2023-02-28T12:34:33;101648.84;;;6.16;29.62
22000;BME280;11164;48.818;2.322;2023-02-28T12:37:06;101646.59;;;6.22;28.79
22000;BME280;11164;48.818;2.322;2023-02-28T12:39:37;101626.47;;;6.08;29.84
22000;BME280;11164;48.818;2.322;2023-02-28T12:42:05;101631.97;;;5.38;30.30
22000;BME280;11164;48.818;2.322;2023-02-28T12:44:37;101630.00;;;5.79;30.68
22000;BME280;11164;48.818;2.322;2023-02-28T12:47:09;101621.09;;;6.17;29.40
22000;BME280;11164;48.818;2.322;2023-02-28T12:49:45;101625.28;;;6.40;27.69
22000;BME280;11164;48.818;2.322;2023-02-28T12:52:19;101621.38;;;6.24;29.26
22000;BME280;11164;48.818;2.322;2023-02-28T12:54:56;101611.19;;;6.38;27.71
22000;BME280;11164;48.818;2.322;2023-02-28T12:57:58;101608.53;;;6.18;27.19
22000;BME280;11164;48.818;2.322;2023-02-28T13:00:23;101611.22;;;6.28;29.49
22000;BME280;11164;48.818;2.322;2023-02-28T13:11:26;101613.53;;;5.93;27.78
22000;BME280;11164;48.818;2.322;2023-02-28T13:14:01;101610.16;;;5.82;29.19
22000;BME280;11164;48.818;2.322;2023-02-28T13:16:27;101598.81;;;6.17;27.14
22000;BME280;11164;48.818;2.322;2023-02-28T13:19:08;101590.63;;;7.83;24.85
22000;BME280;11164;48.818;2.322;2023-02-28T13:21:42;101579.00;;;10.44;23.42
22000;BME280;11164;48.818;2.322;2023-02-28T13:24:08;101581.28;;;10.72;24.01
22000;BME280;11164;48.818;2.322;2023-02-28T13:29:28;101582.59;;;10.28;21.73
22000;BME280;11164;48.818;2.322;2023-02-28T13:47:53;101567.03;;;9.49;24.67
22000;BME280;11164;48.818;2.322;2023-02-28T13:50:28;101576.91;;;8.39;29.35
22000;BME280;11164;48.818;2.322;2023-02-28T13:58:48;101578.00;;;7.58;25.13
22000;BME280;11164;48.818;2.322;2023-02-28T14:04:33;101575.19;;;7.41;25.55
22000;BME280;11164;48.818;2.322;2023-02-28T14:07:04;101570.44;;;7.53;27.86
22000;BME280;11164;48.818;2.322;2023-02-28T14:09:44;101565.16;;;7.25;25.79
22000;BME280;11164;48.818;2.322;2023-02-28T14:15:39;101551.88;;;8.81;22.29
22000;BME280;11164;48.818;2.322;2023-02-28T14:18:25;101564.44;;;9.23;21.75
22000;BME280;11164;48.818;2.322;2023-02-28T14:20:57;101544.59;;;10.06;25.28
22000;BME280;11164;48.818;2.322;2023-02-28T14:28:51;101555.22;;;9.83;24.97
22000;BME280;11164;48.818;2.322;2023-02-28T14:31:34;101555.00;;;9.11;22.68
22000;BME280;11164;48.818;2.322;2023-02-28T14:36:43;101550.38;;;7.83;27.86
22000;BME280;11164;48.818;2.322;2023-02-28T14:39:22;101560.25;;;7.21;26.39
22000;BME280;11164;48.818;2.322;2023-02-28T14:41:48;101566.69;;;7.28;27.41
22000;BME280;11164;48.818;2.322;2023-02-28T14:44:21;101552.19;;;7.03;24.88
22000;BME280;11164;48.818;2.322;2023-02-28T14:46:55;101564.53;;;7.49;25.94
22000;BME280;11164;48.818;2.322;2023-02-28T14:49:31;101549.47;;;7.75;23.91
22000;BME280;11164;48.818;2.322;2023-02-28T14:52:07;101561.13;;;8.78;23.37
22000;BME280;11164;48.818;2.322;2023-02-28T14:54:38;101537.81;;;8.95;25.54
22000;BME280;11164;48.818;2.322;2023-02-28T14:57:04;101566.28;;;8.55;26.55
22000;BME280;11164;48.818;2.322;2023-02-28T14:59:33;101565.16;;;7.43;26.62
22000;BME280;11164;48.818;2.322;2023-02-28T15:02:19;101554.69;;;6.59;24.62
22000;BME280;11164;48.818;2.322;2023-02-28T15:04:59;101565.34;;;6.96;25.35
22000;BME280;11164;48.818;2.322;2023-02-28T15:07:24;101565.25;;;7.34;25.79
22000;BME280;11164;48.818;2.322;2023-02-28T15:12:40;101550.72;;;8.41;25.07